sensor_id;sensor_type;location;lat;lon;timestamp;P1;durP1;ratioP1;P2;durP2;ratioP2
27505;SDS011;14939;43.596;1.320;2022-08-19T00:01:22;11.20;;;7.43;;
27505;SDS011;14939;43.596;1.320;2022-08-19T00:03:49;12.88;;;7.60;;
27505;SDS011;14939;43.596;1.320;2022-08-19T00:06:15;12.38;;;7.45;;
27505;SDS011;14939;43.596;1.320;2022-08-19T00:08:40;10.05;;;7.28;;
27505;SDS011;14939;43.596;1.320;2022-08-19T00:11:06;10.68;;;7.78;;
27505;SDS011;14939;43.596;1.320;2022-08-19T00:13:32;13.30;;;8.20;;
27505;SDS011;14939;43.596;1.320;2022-08-19T00:15:59;12.38;;;7.88;;
27505;SDS011;14939;43.596;1.320;2022-08-19T00:18:25;13.10;;;7.65;;
27505;SDS011;14939;43.596;1.320;2022-08-19T00:20:51;14.82;;;8.65;;
27505;SDS011;14939;43.596;1.320;2022-08-19T00:23:17;11.80;;;7.85;;
27505;SDS011;14939;43.596;1.320;2022-08-19T00:25:43;13.32;;;8.20;;
27505;SDS011;14939;43.596;1.320;2022-08-19T00:28:10;14.30;;;8.73;;
27505;SDS011;14939;43.596;1.320;2022-08-19T00:30:36;14.90;;;8.70;;
27505;SDS011;14939;43.596;1.320;2022-08-19T00:33:02;15.00;;;9.05;;
27505;SDS011;14939;43.596;1.320;2022-08-19T00:35:28;16.63;;;8.73;;
27505;SDS011;14939;43.596;1.320;2022-08-19T00:37:54;17.20;;;9.05;;
27505;SDS011;14939;43.596;1.320;2022-08-19T00:40:20;11.48;;;8.85;;
27505;SDS011;14939;43.596;1.320;2022-08-19T00:42:45;13.52;;;9.40;;
27505;SDS011;14939;43.596;1.320;2022-08-19T00:45:14;15.85;;;9.00;;
27505;SDS011;14939;43.596;1.320;2022-08-19T00:47:43;16.23;;;9.18;;
27505;SDS011;14939;43.596;1.320;2022-08-19T00:50:10;13.43;;;8.98;;
27505;SDS011;14939;43.596;1.320;2022-08-19T00:52:43;13.52;;;8.73;;
27505;SDS011;14939;43.596;1.320;2022-08-19T00:55:19;12.20;;;8.90;;
27505;SDS011;14939;43.596;1.320;2022-08-19T00:57:48;18.42;;;9.18;;
27505;SDS011;14939;43.596;1.320;2022-08-19T01:00:21;16.25;;;9.25;;
27505;SDS011;14939;43.596;1.320;2022-08-19T01:02:49;13.52;;;9.20;;
27505;SDS011;14939;43.596;1.320;2022-08-19T01:05:16;14.13;;;9.35;;
27505;SDS011;14939;43.596;1.320;2022-08-19T01:07:46;14.50;;;9.82;;
27505;SDS011;14939;43.596;1.320;2022-08-19T01:10:15;14.55;;;9.38;;
27505;SDS011;14939;43.596;1.320;2022-08-19T01:12:43;13.48;;;9.30;;
27505;SDS011;14939;43.596;1.320;2022-08-19T01:15:11;15.27;;;8.95;;
27505;SDS011;14939;43.596;1.320;2022-08-19T01:17:39;15.50;;;9.30;;
27505;SDS011;14939;43.596;1.320;2022-08-19T01:20:06;15.27;;;9.35;;
27505;SDS011;14939;43.596;1.320;2022-08-19T01:22:38;19.83;;;9.30;;
27505;SDS011;14939;43.596;1.320;2022-08-19T01:25:12;14.55;;;9.35;;
27505;SDS011;14939;43.596;1.320;2022-08-19T01:27:44;17.53;;;9.60;;
27505;SDS011;14939;43.596;1.320;2022-08-19T01:30:13;15.40;;;9.00;;
27505;SDS011;14939;43.596;1.320;2022-08-19T01:32:42;17.70;;;10.40;;
27505;SDS011;14939;43.596;1.320;2022-08-19T01:35:08;16.27;;;10.27;;
27505;SDS011;14939;43.596;1.320;2022-08-19T01:37:42;17.33;;;9.77;;
27505;SDS011;14939;43.596;1.320;2022-08-19T01:40:09;15.60;;;10.05;;
27505;SDS011;14939;43.596;1.320;2022-08-19T01:42:36;14.98;;;9.80;;
27505;SDS011;14939;43.596;1.320;2022-08-19T01:45:02;14.85;;;9.77;;
27505;SDS011;14939;43.596;1.320;2022-08-19T01:47:28;15.73;;;9.85;;
27505;SDS011;14939;43.596;1.320;2022-08-19T01:49:54;16.95;;;10.05;;
27505;SDS011;14939;43.596;1.320;2022-08-19T01:52:20;15.73;;;9.63;;
27505;SDS011;14939;43.596;1.320;2022-08-19T01:54:46;24.13;;;10.13;;
27505;SDS011;14939;43.596;1.320;2022-08-19T01:57:12;17.80;;;10.13;;
27505;SDS011;14939;43.596;1.320;2022-08-19T01:59:40;19.95;;;9.88;;
27505;SDS011;14939;43.596;1.320;2022-08-19T02:02:07;15.25;;;10.20;;
27505;SDS011;14939;43.596;1.320;2022-08-19T02:04:33;19.15;;;10.13;;
27505;SDS011;14939;43.596;1.320;2022-08-19T02:07:00;14.23;;;9.68;;
27505;SDS011;14939;43.596;1.320;2022-08-19T02:09:26;14.38;;;9.77;;
27505;SDS011;14939;43.596;1.320;2022-08-19T02:11:52;17.25;;;10.15;;
27505;SDS011;14939;43.596;1.320;2022-08-19T02:14:18;16.05;;;9.15;;
27505;SDS011;14939;43.596;1.320;2022-08-19T02:16:44;14.90;;;9.38;;
27505;SDS011;14939;43.596;1.320;2022-08-19T02:19:09;17.88;;;8.95;;
27505;SDS011;14939;43.596;1.320;2022-08-19T02:21:35;16.80;;;9.82;;
27505;SDS011;14939;43.596;1.320;2022-08-19T02:24:02;17.35;;;9.75;;
27505;SDS011;14939;43.596;1.320;2022-08-19T02:26:28;17.15;;;10.15;;
27505;SDS011;14939;43.596;1.320;2022-08-19T02:28:54;19.67;;;9.25;;
27505;SDS011;14939;43.596;1.320;2022-08-19T02:31:21;16.08;;;9.77;;
27505;SDS011;14939;43.596;1.320;2022-08-19T02:33:48;20.27;;;9.55;;
27505;SDS011;14939;43.596;1.320;2022-08-19T02:36:16;13.55;;;9.73;;
27505;SDS011;14939;43.596;1.320;2022-08-19T02:38:42;15.70;;;9.80;;
27505;SDS011;14939;43.596;1.320;2022-08-19T02:41:16;16.90;;;9.88;;
27505;SDS011;14939;43.596;1.320;2022-08-19T02:43:44;22.55;;;9.48;;
27505;SDS011;14939;43.596;1.320;2022-08-19T02:46:14;17.60;;;9.32;;
27505;SDS011;14939;43.596;1.320;2022-08-19T02:48:39;15.20;;;9.70;;
27505;SDS011;14939;43.596;1.320;2022-08-19T02:51:05;18.38;;;9.25;;
27505;SDS011;14939;43.596;1.320;2022-08-19T02:53:31;14.23;;;8.60;;
27505;SDS011;14939;43.596;1.320;2022-08-19T02:55:56;18.52;;;9.13;;
27505;SDS011;14939;43.596;1.320;2022-08-19T02:58:22;15.48;;;8.95;;
27505;SDS011;14939;43.596;1.320;2022-08-19T03:00:50;17.30;;;10.00;;
27505;SDS011;14939;43.596;1.320;2022-08-19T03:03:17;18.02;;;9.32;;
27505;SDS011;14939;43.596;1.320;2022-08-19T03:05:44;20.63;;;10.20;;
27505;SDS011;14939;43.596;1.320;2022-08-19T03:08:10;16.25;;;8.65;;
27505;SDS011;14939;43.596;1.320;2022-08-19T03:10:46;15.68;;;8.85;;
27505;SDS011;14939;43.596;1.320;2022-08-19T03:13:14;15.45;;;8.65;;
27505;SDS011;14939;43.596;1.320;2022-08-19T03:15:42;16.88;;;8.85;;
27505;SDS011;14939;43.596;1.320;2022-08-19T03:18:09;14.55;;;8.63;;
27505;SDS011;14939;43.596;1.320;2022-08-19T03:20:39;19.70;;;8.70;;
27505;SDS011;14939;43.596;1.320;2022-08-19T03:23:06;11.82;;;8.55;;
27505;SDS011;14939;43.596;1.320;2022-08-19T03:25:36;14.63;;;8.35;;
27505;SDS011;14939;43.596;1.320;2022-08-19T03:28:03;18.83;;;8.20;;
27505;SDS011;14939;43.596;1.320;2022-08-19T03:30:29;15.43;;;8.38;;
27505;SDS011;14939;43.596;1.320;2022-08-19T03:32:55;18.85;;;8.07;;
27505;SDS011;14939;43.596;1.320;2022-08-19T03:35:20;16.88;;;8.25;;
27505;SDS011;14939;43.596;1.320;2022-08-19T03:37:46;17.95;;;8.25;;
27505;SDS011;14939;43.596;1.320;2022-08-19T03:40:11;12.30;;;7.43;;
27505;SDS011;14939;43.596;1.320;2022-08-19T03:42:37;15.82;;;8.13;;
27505;SDS011;14939;43.596;1.320;2022-08-19T03:45:04;14.07;;;7.68;;
27505;SDS011;14939;43.596;1.320;2022-08-19T03:47:30;13.85;;;8.38;;
27505;SDS011;14939;43.596;1.320;2022-08-19T03:49:55;16.33;;;7.85;;
27505;SDS011;14939;43.596;1.320;2022-08-19T03:52:21;14.55;;;7.78;;
27505;SDS011;14939;43.596;1.320;2022-08-19T03:54:47;14.25;;;7.57;;
27505;SDS011;14939;43.596;1.320;2022-08-19T03:57:12;18.65;;;7.97;;
27505;SDS011;14939;43.596;1.320;2022-08-19T03:59:38;15.40;;;8.05;;
27505;SDS011;14939;43.596;1.320;2022-08-19T04:02:09;13.65;;;7.85;;
27505;SDS011;14939;43.596;1.320;2022-08-19T04:04:36;17.23;;;7.60;;
27505;SDS011;14939;43.596;1.320;2022-08-19T04:07:03;15.35;;;7.53;;
27505;SDS011;14939;43.596;1.320;2022-08-19T04:09:29;19.77;;;7.78;;
27505;SDS011;14939;43.596;1.320;2022-08-19T04:11:55;15.23;;;7.65;;
27505;SDS011;14939;43.596;1.320;2022-08-19T04:14:23;13.63;;;7.88;;
27505;SDS011;14939;43.596;1.320;2022-08-19T04:16:51;12.50;;;7.93;;
27505;SDS011;14939;43.596;1.320;2022-08-19T04:19:17;15.40;;;7.85;;
27505;SDS011;14939;43.596;1.320;2022-08-19T04:21:44;14.05;;;7.40;;
27505;SDS011;14939;43.596;1.320;2022-08-19T04:24:12;17.60;;;8.38;;
27505;SDS011;14939;43.596;1.320;2022-08-19T04:26:38;15.27;;;7.80;;
27505;SDS011;14939;43.596;1.320;2022-08-19T04:29:06;15.23;;;7.75;;
27505;SDS011;14939;43.596;1.320;2022-08-19T04:31:35;14.25;;;7.35;;
27505;SDS011;14939;43.596;1.320;2022-08-19T04:34:02;17.02;;;7.80;;
27505;SDS011;14939;43.596;1.320;2022-08-19T04:36:31;14.40;;;8.00;;
27505;SDS011;14939;43.596;1.320;2022-08-19T04:39:00;13.95;;;7.60;;
27505;SDS011;14939;43.596;1.320;2022-08-19T04:41:29;16.75;;;8.00;;
27505;SDS011;14939;43.596;1.320;2022-08-19T04:44:13;19.10;;;8.23;;
27505;SDS011;14939;43.596;1.320;2022-08-19T04:46:43;13.27;;;7.53;;
27505;SDS011;14939;43.596;1.320;2022-08-19T04:49:09;15.73;;;7.78;;
27505;SDS011;14939;43.596;1.320;2022-08-19T04:51:36;19.27;;;8.25;;
27505;SDS011;14939;43.596;1.320;2022-08-19T04:54:02;13.07;;;7.35;;
27505;SDS011;14939;43.596;1.320;2022-08-19T04:56:28;18.85;;;7.63;;
27505;SDS011;14939;43.596;1.320;2022-08-19T04:58:54;14.75;;;8.15;;
27505;SDS011;14939;43.596;1.320;2022-08-19T05:01:22;13.65;;;7.55;;
27505;SDS011;14939;43.596;1.320;2022-08-19T05:03:50;16.60;;;7.90;;
27505;SDS011;14939;43.596;1.320;2022-08-19T05:06:16;14.52;;;7.53;;
27505;SDS011;14939;43.596;1.320;2022-08-19T05:08:44;15.63;;;7.60;;
27505;SDS011;14939;43.596;1.320;2022-08-19T05:11:18;15.60;;;8.32;;
27505;SDS011;14939;43.596;1.320;2022-08-19T05:13:51;16.95;;;8.05;;
27505;SDS011;14939;43.596;1.320;2022-08-19T05:16:18;13.88;;;7.95;;
27505;SDS011;14939;43.596;1.320;2022-08-19T05:18:45;18.58;;;8.15;;
27505;SDS011;14939;43.596;1.320;2022-08-19T05:21:30;21.90;;;8.10;;
27505;SDS011;14939;43.596;1.320;2022-08-19T05:24:16;19.27;;;8.18;;
27505;SDS011;14939;43.596;1.320;2022-08-19T05:26:47;18.55;;;8.07;;
27505;SDS011;14939;43.596;1.320;2022-08-19T05:29:15;17.45;;;7.35;;
27505;SDS011;14939;43.596;1.320;2022-08-19T05:31:44;13.32;;;7.00;;
27505;SDS011;14939;43.596;1.320;2022-08-19T05:34:10;19.77;;;8.48;;
27505;SDS011;14939;43.596;1.320;2022-08-19T05:36:38;19.25;;;8.77;;
27505;SDS011;14939;43.596;1.320;2022-08-19T05:39:10;18.10;;;8.18;;
27505;SDS011;14939;43.596;1.320;2022-08-19T05:41:42;17.60;;;7.93;;
27505;SDS011;14939;43.596;1.320;2022-08-19T05:44:13;19.85;;;8.20;;
27505;SDS011;14939;43.596;1.320;2022-08-19T05:46:40;19.58;;;8.27;;
27505;SDS011;14939;43.596;1.320;2022-08-19T05:49:09;17.88;;;8.50;;
27505;SDS011;14939;43.596;1.320;2022-08-19T05:51:35;18.75;;;8.75;;
27505;SDS011;14939;43.596;1.320;2022-08-19T05:54:05;17.85;;;8.75;;
27505;SDS011;14939;43.596;1.320;2022-08-19T05:56:32;19.90;;;8.75;;
27505;SDS011;14939;43.596;1.320;2022-08-19T05:59:01;13.38;;;8.63;;
27505;SDS011;14939;43.596;1.320;2022-08-19T06:01:27;16.27;;;9.05;;
27505;SDS011;14939;43.596;1.320;2022-08-19T06:03:53;14.07;;;8.43;;
27505;SDS011;14939;43.596;1.320;2022-08-19T06:06:19;16.58;;;8.55;;
27505;SDS011;14939;43.596;1.320;2022-08-19T06:08:45;17.33;;;8.98;;
27505;SDS011;14939;43.596;1.320;2022-08-19T06:13:41;15.23;;;8.68;;
27505;SDS011;14939;43.596;1.320;2022-08-19T06:16:08;17.73;;;9.25;;
27505;SDS011;14939;43.596;1.320;2022-08-19T06:18:33;20.50;;;9.25;;
27505;SDS011;14939;43.596;1.320;2022-08-19T06:20:59;22.15;;;8.35;;
27505;SDS011;14939;43.596;1.320;2022-08-19T06:23:28;15.43;;;7.93;;
27505;SDS011;14939;43.596;1.320;2022-08-19T06:25:54;15.45;;;7.88;;
27505;SDS011;14939;43.596;1.320;2022-08-19T06:28:19;18.15;;;8.35;;
27505;SDS011;14939;43.596;1.320;2022-08-19T06:30:45;14.75;;;7.50;;
27505;SDS011;14939;43.596;1.320;2022-08-19T06:33:11;14.90;;;6.90;;
27505;SDS011;14939;43.596;1.320;2022-08-19T06:35:40;16.40;;;7.53;;
27505;SDS011;14939;43.596;1.320;2022-08-19T06:38:06;17.27;;;7.43;;
27505;SDS011;14939;43.596;1.320;2022-08-19T06:40:34;15.48;;;7.38;;
27505;SDS011;14939;43.596;1.320;2022-08-19T06:43:00;18.98;;;7.32;;
27505;SDS011;14939;43.596;1.320;2022-08-19T06:45:27;17.65;;;7.72;;
27505;SDS011;14939;43.596;1.320;2022-08-19T06:47:53;21.92;;;7.68;;
27505;SDS011;14939;43.596;1.320;2022-08-19T06:50:21;14.50;;;6.43;;
27505;SDS011;14939;43.596;1.320;2022-08-19T06:52:48;14.63;;;7.05;;
27505;SDS011;14939;43.596;1.320;2022-08-19T06:55:14;19.05;;;6.97;;
27505;SDS011;14939;43.596;1.320;2022-08-19T06:57:40;15.38;;;7.05;;
27505;SDS011;14939;43.596;1.320;2022-08-19T07:00:08;14.00;;;6.30;;
27505;SDS011;14939;43.596;1.320;2022-08-19T07:02:42;14.90;;;6.43;;
27505;SDS011;14939;43.596;1.320;2022-08-19T07:05:08;15.75;;;6.97;;
27505;SDS011;14939;43.596;1.320;2022-08-19T07:07:34;19.83;;;6.22;;
27505;SDS011;14939;43.596;1.320;2022-08-19T07:10:00;12.68;;;5.60;;
27505;SDS011;14939;43.596;1.320;2022-08-19T07:12:28;10.95;;;5.75;;
27505;SDS011;14939;43.596;1.320;2022-08-19T07:14:57;11.77;;;5.60;;
27505;SDS011;14939;43.596;1.320;2022-08-19T07:17:23;12.32;;;5.88;;
27505;SDS011;14939;43.596;1.320;2022-08-19T07:19:49;12.80;;;5.72;;
27505;SDS011;14939;43.596;1.320;2022-08-19T07:22:15;14.68;;;5.90;;
27505;SDS011;14939;43.596;1.320;2022-08-19T07:24:40;12.63;;;5.93;;
27505;SDS011;14939;43.596;1.320;2022-08-19T07:27:06;11.85;;;6.55;;
27505;SDS011;14939;43.596;1.320;2022-08-19T07:29:33;13.82;;;5.93;;
27505;SDS011;14939;43.596;1.320;2022-08-19T07:32:00;14.55;;;5.18;;
27505;SDS011;14939;43.596;1.320;2022-08-19T07:34:27;13.88;;;5.68;;
27505;SDS011;14939;43.596;1.320;2022-08-19T07:36:54;13.90;;;5.40;;
27505;SDS011;14939;43.596;1.320;2022-08-19T07:39:25;7.72;;;4.97;;
27505;SDS011;14939;43.596;1.320;2022-08-19T07:41:53;8.60;;;5.15;;
27505;SDS011;14939;43.596;1.320;2022-08-19T07:44:20;12.18;;;5.82;;
27505;SDS011;14939;43.596;1.320;2022-08-19T07:46:48;11.48;;;5.32;;
27505;SDS011;14939;43.596;1.320;2022-08-19T07:49:15;15.02;;;5.28;;
27505;SDS011;14939;43.596;1.320;2022-08-19T07:51:46;11.10;;;5.43;;
27505;SDS011;14939;43.596;1.320;2022-08-19T07:54:18;13.05;;;5.40;;
27505;SDS011;14939;43.596;1.320;2022-08-19T07:56:45;12.27;;;5.75;;
27505;SDS011;14939;43.596;1.320;2022-08-19T07:59:11;9.98;;;5.18;;
27505;SDS011;14939;43.596;1.320;2022-08-19T08:01:38;12.65;;;5.43;;
27505;SDS011;14939;43.596;1.320;2022-08-19T08:04:05;9.35;;;4.85;;
27505;SDS011;14939;43.596;1.320;2022-08-19T08:06:50;11.88;;;4.93;;
27505;SDS011;14939;43.596;1.320;2022-08-19T08:09:37;14.88;;;4.70;;
27505;SDS011;14939;43.596;1.320;2022-08-19T08:12:07;10.05;;;4.47;;
27505;SDS011;14939;43.596;1.320;2022-08-19T08:14:40;8.38;;;4.60;;
27505;SDS011;14939;43.596;1.320;2022-08-19T08:17:12;9.05;;;5.03;;
27505;SDS011;14939;43.596;1.320;2022-08-19T08:19:38;11.77;;;5.20;;
27505;SDS011;14939;43.596;1.320;2022-08-19T08:22:06;11.48;;;4.93;;
27505;SDS011;14939;43.596;1.320;2022-08-19T08:24:33;12.82;;;5.25;;
27505;SDS011;14939;43.596;1.320;2022-08-19T08:27:00;9.60;;;4.78;;
27505;SDS011;14939;43.596;1.320;2022-08-19T08:29:27;9.48;;;4.95;;
27505;SDS011;14939;43.596;1.320;2022-08-19T08:31:54;11.77;;;4.95;;
27505;SDS011;14939;43.596;1.320;2022-08-19T08:34:21;8.73;;;4.57;;
27505;SDS011;14939;43.596;1.320;2022-08-19T08:36:47;16.08;;;5.10;;
27505;SDS011;14939;43.596;1.320;2022-08-19T08:39:14;12.75;;;5.05;;
27505;SDS011;14939;43.596;1.320;2022-08-19T08:42:00;7.88;;;4.35;;
27505;SDS011;14939;43.596;1.320;2022-08-19T08:47:03;10.05;;;4.68;;
27505;SDS011;14939;43.596;1.320;2022-08-19T08:52:11;11.18;;;4.55;;
27505;SDS011;14939;43.596;1.320;2022-08-19T08:54:54;9.50;;;4.47;;
27505;SDS011;14939;43.596;1.320;2022-08-19T09:00:28;16.50;;;4.60;;
27505;SDS011;14939;43.596;1.320;2022-08-19T09:02:57;8.75;;;4.50;;
27505;SDS011;14939;43.596;1.320;2022-08-19T09:05:26;10.77;;;4.60;;
27505;SDS011;14939;43.596;1.320;2022-08-19T09:08:18;10.07;;;4.47;;
27505;SDS011;14939;43.596;1.320;2022-08-19T09:10:53;8.68;;;4.43;;
27505;SDS011;14939;43.596;1.320;2022-08-19T09:15:54;6.45;;;4.10;;
27505;SDS011;14939;43.596;1.320;2022-08-19T09:18:23;11.77;;;4.72;;
27505;SDS011;14939;43.596;1.320;2022-08-19T09:20:48;9.82;;;4.95;;
27505;SDS011;14939;43.596;1.320;2022-08-19T09:23:14;8.18;;;4.80;;
27505;SDS011;14939;43.596;1.320;2022-08-19T09:25:40;10.68;;;4.45;;
27505;SDS011;14939;43.596;1.320;2022-08-19T09:28:06;8.00;;;4.68;;
27505;SDS011;14939;43.596;1.320;2022-08-19T09:30:34;9.75;;;4.75;;
27505;SDS011;14939;43.596;1.320;2022-08-19T09:35:31;8.05;;;4.40;;
27505;SDS011;14939;43.596;1.320;2022-08-19T09:37:57;11.55;;;4.72;;
27505;SDS011;14939;43.596;1.320;2022-08-19T09:40:24;8.43;;;4.72;;
27505;SDS011;14939;43.596;1.320;2022-08-19T09:42:51;8.38;;;4.38;;
27505;SDS011;14939;43.596;1.320;2022-08-19T09:45:18;9.40;;;4.80;;
27505;SDS011;14939;43.596;1.320;2022-08-19T09:47:46;8.45;;;4.47;;
27505;SDS011;14939;43.596;1.320;2022-08-19T09:50:13;8.88;;;4.78;;
27505;SDS011;14939;43.596;1.320;2022-08-19T09:52:39;8.90;;;4.60;;
27505;SDS011;14939;43.596;1.320;2022-08-19T09:55:07;9.52;;;4.38;;
27505;SDS011;14939;43.596;1.320;2022-08-19T09:57:34;9.75;;;4.30;;
27505;SDS011;14939;43.596;1.320;2022-08-19T10:00:00;10.98;;;4.30;;
27505;SDS011;14939;43.596;1.320;2022-08-19T10:02:27;9.45;;;4.38;;
27505;SDS011;14939;43.596;1.320;2022-08-19T10:04:53;7.25;;;4.60;;
27505;SDS011;14939;43.596;1.320;2022-08-19T10:07:37;7.40;;;4.25;;
27505;SDS011;14939;43.596;1.320;2022-08-19T10:10:04;9.52;;;4.53;;
27505;SDS011;14939;43.596;1.320;2022-08-19T10:12:31;11.30;;;4.93;;
27505;SDS011;14939;43.596;1.320;2022-08-19T10:14:58;9.38;;;4.60;;
27505;SDS011;14939;43.596;1.320;2022-08-19T10:17:24;8.48;;;4.40;;
27505;SDS011;14939;43.596;1.320;2022-08-19T10:19:51;8.10;;;4.97;;
27505;SDS011;14939;43.596;1.320;2022-08-19T10:22:17;10.63;;;4.93;;
27505;SDS011;14939;43.596;1.320;2022-08-19T10:24:43;8.95;;;4.47;;
27505;SDS011;14939;43.596;1.320;2022-08-19T10:27:12;7.88;;;4.28;;
27505;SDS011;14939;43.596;1.320;2022-08-19T10:29:39;10.25;;;4.38;;
27505;SDS011;14939;43.596;1.320;2022-08-19T10:32:06;11.90;;;4.47;;
27505;SDS011;14939;43.596;1.320;2022-08-19T10:34:33;6.97;;;4.25;;
27505;SDS011;14939;43.596;1.320;2022-08-19T10:37:00;8.80;;;4.80;;
27505;SDS011;14939;43.596;1.320;2022-08-19T10:39:26;7.47;;;4.32;;
27505;SDS011;14939;43.596;1.320;2022-08-19T10:41:55;9.18;;;5.00;;
27505;SDS011;14939;43.596;1.320;2022-08-19T10:44:21;9.98;;;4.63;;
27505;SDS011;14939;43.596;1.320;2022-08-19T10:46:50;10.45;;;4.80;;
27505;SDS011;14939;43.596;1.320;2022-08-19T10:49:17;7.97;;;4.68;;
27505;SDS011;14939;43.596;1.320;2022-08-19T10:51:44;10.35;;;4.97;;
27505;SDS011;14939;43.596;1.320;2022-08-19T10:54:29;9.30;;;4.40;;
27505;SDS011;14939;43.596;1.320;2022-08-19T10:57:13;7.57;;;4.38;;
27505;SDS011;14939;43.596;1.320;2022-08-19T10:59:40;7.28;;;4.22;;
27505;SDS011;14939;43.596;1.320;2022-08-19T11:02:07;8.50;;;4.80;;
27505;SDS011;14939;43.596;1.320;2022-08-19T11:04:35;7.55;;;4.07;;
27505;SDS011;14939;43.596;1.320;2022-08-19T11:07:02;5.35;;;4.05;;
27505;SDS011;14939;43.596;1.320;2022-08-19T11:09:29;8.77;;;4.28;;
27505;SDS011;14939;43.596;1.320;2022-08-19T11:11:56;7.25;;;4.30;;
27505;SDS011;14939;43.596;1.320;2022-08-19T11:14:22;10.30;;;4.18;;
27505;SDS011;14939;43.596;1.320;2022-08-19T11:16:48;6.85;;;3.75;;
27505;SDS011;14939;43.596;1.320;2022-08-19T11:19:15;6.68;;;4.10;;
27505;SDS011;14939;43.596;1.320;2022-08-19T11:21:44;8.05;;;3.60;;
27505;SDS011;14939;43.596;1.320;2022-08-19T11:24:17;7.65;;;3.63;;
27505;SDS011;14939;43.596;1.320;2022-08-19T11:26:45;6.13;;;3.75;;
27505;SDS011;14939;43.596;1.320;2022-08-19T11:29:14;5.53;;;3.42;;
27505;SDS011;14939;43.596;1.320;2022-08-19T11:31:42;7.82;;;3.88;;
27505;SDS011;14939;43.596;1.320;2022-08-19T11:34:12;6.75;;;4.03;;
27505;SDS011;14939;43.596;1.320;2022-08-19T11:36:42;7.30;;;3.80;;
27505;SDS011;14939;43.596;1.320;2022-08-19T11:39:09;6.90;;;3.65;;
27505;SDS011;14939;43.596;1.320;2022-08-19T11:41:37;7.47;;;3.33;;
27505;SDS011;14939;43.596;1.320;2022-08-19T11:44:03;5.88;;;3.30;;
27505;SDS011;14939;43.596;1.320;2022-08-19T11:46:30;9.90;;;3.80;;
27505;SDS011;14939;43.596;1.320;2022-08-19T11:48:59;7.20;;;3.58;;
27505;SDS011;14939;43.596;1.320;2022-08-19T11:51:27;11.05;;;4.05;;
27505;SDS011;14939;43.596;1.320;2022-08-19T11:53:54;5.75;;;3.53;;
27505;SDS011;14939;43.596;1.320;2022-08-19T11:56:21;5.93;;;3.28;;
27505;SDS011;14939;43.596;1.320;2022-08-19T11:58:49;7.05;;;3.47;;
27505;SDS011;14939;43.596;1.320;2022-08-19T12:01:16;7.65;;;3.50;;
27505;SDS011;14939;43.596;1.320;2022-08-19T12:03:44;6.20;;;3.53;;
27505;SDS011;14939;43.596;1.320;2022-08-19T12:06:12;5.28;;;3.42;;
27505;SDS011;14939;43.596;1.320;2022-08-19T12:08:40;7.38;;;3.58;;
27505;SDS011;14939;43.596;1.320;2022-08-19T12:11:08;5.95;;;3.45;;
27505;SDS011;14939;43.596;1.320;2022-08-19T12:13:35;6.65;;;3.58;;
27505;SDS011;14939;43.596;1.320;2022-08-19T12:16:06;5.18;;;3.08;;
27505;SDS011;14939;43.596;1.320;2022-08-19T12:18:37;6.15;;;3.30;;
27505;SDS011;14939;43.596;1.320;2022-08-19T12:21:04;6.28;;;3.25;;
27505;SDS011;14939;43.596;1.320;2022-08-19T12:23:30;5.15;;;3.10;;
27505;SDS011;14939;43.596;1.320;2022-08-19T12:25:55;6.20;;;2.85;;
27505;SDS011;14939;43.596;1.320;2022-08-19T12:28:22;5.30;;;3.45;;
27505;SDS011;14939;43.596;1.320;2022-08-19T12:30:49;6.22;;;3.35;;
27505;SDS011;14939;43.596;1.320;2022-08-19T12:33:16;7.03;;;3.00;;
27505;SDS011;14939;43.596;1.320;2022-08-19T12:35:43;8.85;;;2.90;;
27505;SDS011;14939;43.596;1.320;2022-08-19T12:38:11;3.95;;;2.80;;
27505;SDS011;14939;43.596;1.320;2022-08-19T12:40:38;5.85;;;2.95;;
27505;SDS011;14939;43.596;1.320;2022-08-19T12:43:05;3.90;;;2.97;;
27505;SDS011;14939;43.596;1.320;2022-08-19T12:45:33;4.28;;;3.10;;
27505;SDS011;14939;43.596;1.320;2022-08-19T12:47:59;5.78;;;3.22;;
27505;SDS011;14939;43.596;1.320;2022-08-19T12:50:25;5.93;;;3.00;;
27505;SDS011;14939;43.596;1.320;2022-08-19T12:52:50;5.28;;;2.80;;
27505;SDS011;14939;43.596;1.320;2022-08-19T12:55:16;5.13;;;2.78;;
27505;SDS011;14939;43.596;1.320;2022-08-19T12:57:43;5.50;;;3.17;;
27505;SDS011;14939;43.596;1.320;2022-08-19T13:00:11;7.45;;;3.08;;
27505;SDS011;14939;43.596;1.320;2022-08-19T13:02:43;8.18;;;2.70;;
27505;SDS011;14939;43.596;1.320;2022-08-19T13:05:12;6.63;;;2.97;;
27505;SDS011;14939;43.596;1.320;2022-08-19T13:07:41;5.35;;;3.00;;
27505;SDS011;14939;43.596;1.320;2022-08-19T13:10:09;6.38;;;3.03;;
27505;SDS011;14939;43.596;1.320;2022-08-19T13:12:37;6.40;;;3.17;;
27505;SDS011;14939;43.596;1.320;2022-08-19T13:15:04;5.80;;;3.13;;
27505;SDS011;14939;43.596;1.320;2022-08-19T13:17:30;3.67;;;2.60;;
27505;SDS011;14939;43.596;1.320;2022-08-19T13:19:58;6.28;;;2.83;;
27505;SDS011;14939;43.596;1.320;2022-08-19T13:22:23;5.18;;;2.95;;
27505;SDS011;14939;43.596;1.320;2022-08-19T13:24:49;6.45;;;2.75;;
27505;SDS011;14939;43.596;1.320;2022-08-19T13:27:15;4.43;;;2.83;;
27505;SDS011;14939;43.596;1.320;2022-08-19T13:29:41;5.93;;;2.78;;
27505;SDS011;14939;43.596;1.320;2022-08-19T13:32:26;4.53;;;2.72;;
27505;SDS011;14939;43.596;1.320;2022-08-19T13:35:10;3.92;;;2.65;;
27505;SDS011;14939;43.596;1.320;2022-08-19T13:37:37;4.80;;;2.97;;
27505;SDS011;14939;43.596;1.320;2022-08-19T13:40:18;6.27;;;2.87;;
27505;SDS011;14939;43.596;1.320;2022-08-19T13:42:49;7.15;;;2.70;;
27505;SDS011;14939;43.596;1.320;2022-08-19T13:45:17;3.92;;;2.78;;
27505;SDS011;14939;43.596;1.320;2022-08-19T13:47:46;4.75;;;2.90;;
27505;SDS011;14939;43.596;1.320;2022-08-19T13:50:14;4.32;;;2.63;;
27505;SDS011;14939;43.596;1.320;2022-08-19T13:52:42;4.97;;;2.55;;
27505;SDS011;14939;43.596;1.320;2022-08-19T13:55:09;4.45;;;2.78;;
27505;SDS011;14939;43.596;1.320;2022-08-19T13:57:37;3.45;;;2.50;;
27505;SDS011;14939;43.596;1.320;2022-08-19T14:00:16;6.05;;;2.70;;
27505;SDS011;14939;43.596;1.320;2022-08-19T14:02:43;4.32;;;2.70;;
27505;SDS011;14939;43.596;1.320;2022-08-19T14:05:11;4.95;;;2.55;;
27505;SDS011;14939;43.596;1.320;2022-08-19T14:07:39;5.97;;;2.70;;
27505;SDS011;14939;43.596;1.320;2022-08-19T14:10:07;5.15;;;2.42;;
27505;SDS011;14939;43.596;1.320;2022-08-19T14:12:34;3.65;;;2.40;;
27505;SDS011;14939;43.596;1.320;2022-08-19T14:15:00;5.07;;;2.60;;
27505;SDS011;14939;43.596;1.320;2022-08-19T14:17:27;3.47;;;2.60;;
27505;SDS011;14939;43.596;1.320;2022-08-19T14:19:57;3.13;;;2.58;;
27505;SDS011;14939;43.596;1.320;2022-08-19T14:22:29;6.95;;;2.50;;
27505;SDS011;14939;43.596;1.320;2022-08-19T14:24:56;4.25;;;2.50;;
27505;SDS011;14939;43.596;1.320;2022-08-19T14:27:22;5.28;;;2.65;;
27505;SDS011;14939;43.596;1.320;2022-08-19T14:29:50;4.45;;;2.72;;
27505;SDS011;14939;43.596;1.320;2022-08-19T14:32:16;3.97;;;2.67;;
27505;SDS011;14939;43.596;1.320;2022-08-19T14:34:42;5.90;;;2.55;;
27505;SDS011;14939;43.596;1.320;2022-08-19T14:37:10;5.55;;;2.78;;
27505;SDS011;14939;43.596;1.320;2022-08-19T14:39:40;3.15;;;2.70;;
27505;SDS011;14939;43.596;1.320;2022-08-19T14:42:07;5.03;;;2.72;;
27505;SDS011;14939;43.596;1.320;2022-08-19T14:44:33;6.18;;;2.90;;
27505;SDS011;14939;43.596;1.320;2022-08-19T14:46:59;6.10;;;2.80;;
27505;SDS011;14939;43.596;1.320;2022-08-19T14:49:25;5.95;;;2.85;;
27505;SDS011;14939;43.596;1.320;2022-08-19T14:51:50;3.75;;;2.97;;
27505;SDS011;14939;43.596;1.320;2022-08-19T14:54:16;4.35;;;2.80;;
27505;SDS011;14939;43.596;1.320;2022-08-19T14:56:42;5.55;;;2.75;;
27505;SDS011;14939;43.596;1.320;2022-08-19T14:59:08;3.38;;;2.72;;